createdAt,value
2018-11-20T00:03:52.686Z,62.29
2018-11-20T00:06:41.743Z,62.10
2018-11-20T00:09:31.841Z,62.44
2018-11-20T00:12:05.409Z,62.70
2018-11-20T00:14:52.903Z,62.69
2018-11-20T00:17:21.829Z,62.88
2018-11-20T00:20:14.289Z,62.63
2018-11-20T00:23:08.903Z,62.90
2018-11-20T00:26:10.694Z,63.06
2018-11-20T00:29:16.418Z,63.03
2018-11-20T00:34:17.608Z,63.03
2018-11-20T00:36:54.349Z,62.95
2018-11-20T00:39:30.132Z,62.94
2018-11-20T00:44:56.710Z,62.93
2018-11-20T00:47:46.440Z,62.79
2018-11-20T00:50:40.347Z,62.46
2018-11-20T00:56:53.185Z,62.52
2018-11-20T00:59:58.040Z,62.40
2018-11-20T01:02:49.074Z,62.52
2018-11-20T01:05:35.453Z,62.72
2018-11-20T01:08:26.916Z,62.90
2018-11-20T01:11:09.682Z,63.02
2018-11-20T01:13:46.387Z,63.24
2018-11-20T01:16:25.811Z,63.08
2018-11-20T01:21:45.151Z,63.21
2018-11-20T01:24:33.253Z,63.43
2018-11-20T01:27:37.034Z,63.22
2018-11-20T01:30:25.904Z,63.38
2018-11-20T01:33:17.681Z,63.08
2018-11-20T01:36:04.375Z,63.24
2018-11-20T01:39:02.412Z,63.45
2018-11-20T01:41:40.892Z,63.50
2018-11-20T01:44:30.989Z,63.32
2018-11-20T01:49:52.780Z,62.94
2018-11-20T01:52:46.256Z,62.99
2018-11-20T01:55:28.439Z,62.79
2018-11-20T01:58:11.371Z,62.77
2018-11-20T02:01:01.272Z,62.74
2018-11-20T02:06:23.577Z,62.67
2018-11-20T02:09:15.895Z,62.71
2018-11-20T02:12:09.279Z,62.57
2018-11-20T02:14:57.423Z,62.48
2018-11-20T02:17:26.152Z,62.70
2018-11-20T02:20:18.187Z,62.65
2018-11-20T02:28:14.372Z,63.07
2018-11-20T02:33:24.078Z,63.12
2018-11-20T02:35:56.484Z,63.21
2018-11-20T02:38:45.536Z,63.42
2018-11-20T02:41:42.271Z,63.29
2018-11-20T02:44:22.615Z,63.27
2018-11-20T02:47:17.769Z,63.35
2018-11-20T02:50:08.239Z,63.48
2018-11-20T02:53:01.934Z,63.49
2018-11-20T02:55:31.292Z,63.50
2018-11-20T02:58:22.617Z,63.45
2018-11-20T03:01:12.798Z,63.06
2018-11-20T03:04:05.297Z,63.21
2018-11-20T03:06:55.945Z,63.02
2018-11-20T03:09:44.185Z,62.99
2018-11-20T03:12:31.700Z,63.08
2018-11-20T03:15:22.939Z,62.92
2018-11-20T03:18:20.480Z,62.75
2018-11-20T03:21:12.572Z,63.02
2018-11-20T03:24:16.396Z,63.05
2018-11-20T03:30:49.177Z,62.94
2018-11-20T03:36:14.215Z,62.51
2018-11-20T03:39:18.131Z,62.71
2018-11-20T03:41:51.564Z,62.49
2018-11-20T03:44:30.608Z,62.61
2018-11-20T03:47:10.854Z,62.61
2018-11-20T03:50:08.771Z,62.67
2018-11-20T03:52:54.133Z,62.65
2018-11-20T03:55:44.296Z,62.59
2018-11-20T03:58:32.503Z,62.62
2018-11-20T04:01:22.871Z,62.80
2018-11-20T04:04:03.867Z,62.67
2018-11-20T04:06:46.352Z,62.55
2018-11-20T04:09:50.563Z,62.39
2018-11-20T04:15:08.456Z,62.72
2018-11-20T04:20:35.984Z,62.58
2018-11-20T04:25:59.224Z,62.70
2018-11-20T04:28:40.434Z,62.62
2018-11-20T04:32:34.336Z,62.48
2018-11-20T04:35:24.094Z,62.51
2018-11-20T04:38:15.474Z,62.44
2018-11-20T04:40:44.958Z,62.46
2018-11-20T04:43:30.365Z,62.71
2018-11-20T04:46:30.943Z,62.71
2018-11-20T04:52:08.846Z,62.61
2018-11-20T04:54:52.515Z,62.20
2018-11-20T04:57:50.176Z,62.31
2018-11-20T05:00:39.464Z,62.63
2018-11-20T05:03:40.101Z,62.29
2018-11-20T05:06:21.103Z,62.57
2018-11-20T05:09:20.536Z,62.49
2018-11-20T05:12:03.121Z,62.66
2018-11-20T05:14:55.382Z,62.66
2018-11-20T05:17:33.142Z,63.09
2018-11-20T05:20:38.424Z,62.80
2018-11-20T05:23:36.213Z,62.96
2018-11-20T05:26:27.848Z,62.75
2018-11-20T05:29:16.729Z,62.84
2018-11-20T05:32:21.729Z,63.10
2018-11-20T05:35:03.042Z,62.52
2018-11-20T05:38:12.476Z,62.66
2018-11-20T05:41:01.074Z,62.87
2018-11-20T05:43:54.015Z,62.65
2018-11-20T05:47:01.368Z,62.82
2018-11-20T05:49:50.240Z,62.88
2018-11-20T05:52:41.611Z,62.74
2018-11-20T05:55:37.066Z,62.61
2018-11-20T05:58:37.567Z,63.70
2018-11-20T06:01:19.390Z,62.64
2018-11-20T06:04:05.132Z,63.04
2018-11-20T06:06:52.751Z,62.67
2018-11-20T06:09:41.808Z,62.99
2018-11-20T06:12:29.772Z,63.21
2018-11-20T06:15:20.554Z,62.91
2018-11-20T06:17:53.227Z,62.88
2018-11-20T06:20:33.192Z,62.72
2018-11-20T06:23:23.691Z,62.83
2018-11-20T06:26:11.217Z,62.87
2018-11-20T06:29:15.229Z,63.11
2018-11-20T06:31:55.811Z,62.90
2018-11-20T06:34:43.238Z,62.99
2018-11-20T06:37:35.324Z,62.90
2018-11-20T06:40:25.043Z,62.79
2018-11-20T06:42:54.223Z,63.12
2018-11-20T06:45:44.954Z,63.00
2018-11-20T06:48:32.363Z,63.23
2018-11-20T06:51:26.516Z,63.11
2018-11-20T06:54:17.113Z,63.13
2018-11-20T06:59:33.353Z,62.95
2018-11-20T07:02:24.467Z,63.09
2018-11-20T07:05:15.339Z,63.34
2018-11-20T07:08:05.668Z,63.44
2018-11-20T07:10:54.671Z,63.32
2018-11-20T07:14:07.287Z,63.43
2018-11-20T07:17:11.321Z,63.53
2018-11-20T07:20:00.931Z,63.46
2018-11-20T07:22:44.594Z,63.74
2018-11-20T07:25:51.027Z,63.84
2018-11-20T07:28:58.728Z,63.92
2018-11-20T07:34:23.013Z,63.95
2018-11-20T07:37:18.700Z,63.55
2018-11-20T07:40:08.963Z,63.38
2018-11-20T07:42:43.422Z,63.30
2018-11-20T07:45:27.886Z,63.12
2018-11-20T07:48:20.390Z,63.33
2018-11-20T07:51:12.040Z,63.26
2018-11-20T07:54:13.136Z,63.15
2018-11-20T07:56:46.411Z,63.01
2018-11-20T07:59:32.016Z,62.98
2018-11-20T08:04:56.261Z,62.78
2018-11-20T08:07:44.128Z,62.88
2018-11-20T08:10:45.211Z,62.78
2018-11-20T08:13:27.296Z,62.66
2018-11-20T08:16:21.445Z,62.70
2018-11-20T08:21:48.260Z,62.57
2018-11-20T08:24:35.499Z,62.55
2018-11-20T08:27:25.414Z,62.52
2018-11-20T08:29:54.932Z,62.45
2018-11-20T08:32:42.736Z,62.60
2018-11-20T08:35:25.644Z,62.65
2018-11-20T08:38:17.664Z,62.78
2018-11-20T08:41:09.563Z,62.33
2018-11-20T08:46:16.186Z,62.36
2018-11-20T08:51:32.396Z,62.27
2018-11-20T08:54:18.795Z,62.11
2018-11-20T08:56:52.749Z,62.28
2018-11-20T08:59:42.147Z,62.00
2018-11-20T09:02:37.003Z,61.90
2018-11-20T09:05:31.342Z,61.84
2018-11-20T09:10:54.599Z,61.58
2018-11-20T09:14:01.955Z,61.40
2018-11-20T09:16:59.873Z,61.14
2018-11-20T09:19:51.710Z,61.27
2018-11-20T09:22:52.428Z,61.13
2018-11-20T09:25:29.223Z,61.34
2018-11-20T09:28:23.012Z,61.25
2018-11-20T09:31:14.737Z,61.07
2018-11-20T09:36:25.257Z,60.95
2018-11-20T09:39:17.276Z,60.93
2018-11-20T09:42:07.507Z,60.42
2018-11-20T09:44:55.394Z,60.65
2018-11-20T09:47:45.455Z,60.52
2018-11-20T09:50:17.631Z,60.53
2018-11-20T09:52:54.192Z,60.44
2018-11-20T09:55:44.574Z,60.33
2018-11-20T09:58:33.494Z,60.25
2018-11-20T10:01:23.762Z,60.36
2018-11-20T10:06:47.979Z,60.11
2018-11-20T10:09:22.102Z,60.17
2018-11-20T10:12:25.070Z,59.97
2018-11-20T10:15:04.836Z,60.05
2018-11-20T10:18:05.328Z,60.27
2018-11-20T10:21:00.615Z,59.90
2018-11-20T10:23:51.214Z,59.92
2018-11-20T10:26:27.814Z,60.42
2018-11-20T10:28:55.751Z,60.03
2018-11-20T10:31:43.792Z,60.09
2018-11-20T10:34:40.399Z,60.10
2018-11-20T10:37:22.131Z,60.47
2018-11-20T10:40:15.503Z,60.22
2018-11-20T10:42:52.394Z,60.25
2018-11-20T10:45:39.198Z,60.14
2018-11-20T10:48:31.419Z,60.15
2018-11-20T10:53:55.668Z,60.11
2018-11-20T10:56:43.312Z,60.21
2018-11-20T10:59:35.203Z,60.09
2018-11-20T11:04:55.028Z,60.39
2018-11-20T11:07:46.707Z,60.33
2018-11-20T11:13:07.817Z,60.49
2018-11-20T11:16:05.272Z,60.39
2018-11-20T11:21:25.119Z,60.34
2018-11-20T11:28:30.456Z,60.16
2018-11-20T11:31:16.015Z,59.95
2018-11-20T11:34:14.998Z,60.01
2018-11-20T11:37:13.713Z,59.98
2018-11-20T11:40:06.758Z,60.10
2018-11-20T11:42:53.636Z,59.91
2018-11-20T11:45:43.441Z,59.56
2018-11-20T11:48:29.039Z,59.39
2018-11-20T11:51:09.983Z,58.66
2018-11-20T11:53:43.971Z,58.87
2018-11-20T11:56:24.345Z,58.44
2018-11-20T11:59:10.378Z,58.13
2018-11-20T12:04:39.277Z,57.89
2018-11-20T12:07:24.356Z,58.05
2018-11-20T12:10:15.207Z,58.54
2018-11-20T12:13:01.295Z,58.67
2018-11-20T12:16:00.046Z,58.59
2018-11-20T12:18:45.882Z,58.47
2018-11-20T12:21:36.758Z,58.71
2018-11-20T12:24:27.304Z,58.87
2018-11-20T12:27:04.435Z,58.93
2018-11-20T12:29:40.092Z,59.12
2018-11-20T12:32:26.643Z,59.12
2018-11-20T12:35:33.077Z,59.42
2018-11-20T12:38:08.673Z,59.75
2018-11-20T12:40:55.918Z,60.02
2018-11-20T12:43:35.636Z,60.46
2018-11-20T12:46:19.648Z,60.64
2018-11-20T12:49:05.357Z,60.68
2018-11-20T12:51:51.302Z,61.10
2018-11-20T12:54:41.098Z,61.10
2018-11-20T12:57:40.298Z,61.42
2018-11-20T13:00:35.112Z,61.79
2018-11-20T13:03:30.832Z,62.48
2018-11-20T13:06:35.371Z,62.51
2018-11-20T13:09:15.887Z,62.56
2018-11-20T13:11:52.867Z,62.70
2018-11-20T13:14:46.117Z,62.35
2018-11-20T13:17:33.665Z,62.30
2018-11-20T13:20:29.670Z,62.35
2018-11-20T13:23:25.569Z,62.24
2018-11-20T13:26:08.953Z,62.31
2018-11-20T13:29:11.251Z,62.61
2018-11-20T13:32:10.101Z,62.92
2018-11-20T13:34:57.701Z,63.27
2018-11-20T13:37:35.625Z,63.15
2018-11-20T13:40:14.640Z,63.42
2018-11-20T13:43:15.832Z,63.40
2018-11-20T13:46:01.988Z,63.54
2018-11-20T13:48:40.815Z,63.98
2018-11-20T13:51:27.510Z,64.59
2018-11-20T13:54:17.404Z,64.31
2018-11-20T13:57:16.546Z,64.61
2018-11-20T14:00:01.381Z,65.30
2018-11-20T14:02:39.415Z,64.85
2018-11-20T14:05:44.415Z,66.35
2018-11-20T14:08:23.138Z,66.84
2018-11-20T14:11:10.111Z,67.68
2018-11-20T14:13:48.599Z,67.06
2018-11-20T14:16:34.123Z,67.07
2018-11-20T14:19:20.099Z,67.20
2018-11-20T14:22:06.408Z,67.25
2018-11-20T14:25:05.882Z,67.13
2018-11-20T14:27:57.212Z,67.53
2018-11-20T14:30:45.901Z,68.11
2018-11-20T14:33:45.359Z,67.61
2018-11-20T14:36:51.607Z,67.70
2018-11-20T14:39:48.058Z,67.70
2018-11-20T14:42:35.002Z,67.67
2018-11-20T14:45:25.060Z,68.04
2018-11-20T14:48:14.619Z,68.18
2018-11-20T14:51:04.528Z,68.05
2018-11-20T14:53:47.808Z,68.35
2018-11-20T14:56:22.184Z,68.88
2018-11-20T14:59:15.282Z,68.68
2018-11-20T15:02:01.469Z,68.72
2018-11-20T15:04:49.887Z,68.18
2018-11-20T15:07:45.186Z,68.52
2018-11-20T15:10:20.233Z,68.55
2018-11-20T15:13:07.417Z,68.89
2018-11-20T15:15:53.472Z,68.43
2018-11-20T15:18:47.080Z,68.98
2018-11-20T15:21:52.093Z,68.53
2018-11-20T15:24:48.178Z,68.87
2018-11-20T15:27:34.210Z,68.90
2018-11-20T15:30:30.720Z,68.73
2018-11-20T15:33:09.061Z,68.35
2018-11-20T15:35:59.131Z,69.15
2018-11-20T15:38:44.837Z,68.63
2018-11-20T15:41:31.994Z,69.12
2018-11-20T15:44:28.789Z,68.71
2018-11-20T15:47:06.846Z,69.30
2018-11-20T15:49:53.019Z,69.38
2018-11-20T15:52:39.654Z,69.43
2018-11-20T15:55:29.512Z,69.19
2018-11-20T15:58:22.838Z,69.06
2018-11-20T16:01:23.198Z,68.85
2018-11-20T16:04:05.210Z,69.04
2018-11-20T16:06:51.045Z,69.02
2018-11-20T16:09:36.743Z,69.36
2018-11-20T16:12:24.089Z,69.84
2018-11-20T16:15:13.920Z,69.60
2018-11-20T16:17:58.785Z,69.24
2018-11-20T16:20:56.058Z,69.40
2018-11-20T16:23:55.881Z,69.71
2018-11-20T16:26:58.244Z,69.22
2018-11-20T16:29:43.672Z,69.89
2018-11-20T16:32:43.231Z,69.85
2018-11-20T16:35:30.557Z,69.50
2018-11-20T16:38:33.188Z,69.83
2018-11-20T16:41:19.199Z,69.96
2018-11-20T16:44:12.301Z,70.02
2018-11-20T16:46:57.950Z,69.73
2018-11-20T16:49:43.689Z,69.55
2018-11-20T16:52:33.596Z,69.88
2018-11-20T16:55:19.570Z,70.15
2018-11-20T16:58:08.218Z,69.98
2018-11-20T17:00:55.124Z,69.96
2018-11-20T17:03:42.197Z,70.06
2018-11-20T17:06:35.564Z,70.19
2018-11-20T17:09:29.558Z,70.27
2018-11-20T17:12:05.838Z,70.43
2018-11-20T17:14:51.811Z,70.15
2018-11-20T17:17:38.459Z,70.14
2018-11-20T17:20:27.496Z,70.47
2018-11-20T17:23:29.690Z,70.44
2018-11-20T17:26:13.060Z,70.51
2018-11-20T17:28:58.466Z,70.43
2018-11-20T17:31:40.199Z,70.13
2018-11-20T17:34:45.527Z,70.01
2018-11-20T17:37:44.795Z,70.13
2018-11-20T17:40:34.378Z,70.04
2018-11-20T17:43:10.775Z,70.11
2018-11-20T17:45:56.889Z,69.82
2018-11-20T17:48:42.929Z,69.92
2018-11-20T17:51:28.687Z,69.63
2018-11-20T17:54:22.366Z,70.05
2018-11-20T17:57:08.403Z,69.74
2018-11-20T17:59:43.094Z,69.90
2018-11-20T18:02:33.070Z,69.85
2018-11-20T18:05:18.776Z,70.03
2018-11-20T18:08:10.146Z,70.38
2018-11-20T18:10:53.415Z,70.13
2018-11-20T18:13:37.722Z,70.18
2018-11-20T18:16:39.806Z,70.49
2018-11-20T18:19:25.351Z,70.73
2018-11-20T18:22:24.447Z,70.42
2018-11-20T18:25:10.590Z,70.22
2018-11-20T18:27:57.447Z,71.18
2018-11-20T18:30:47.482Z,71.32
2018-11-20T18:33:29.802Z,71.29
2018-11-20T18:36:16.148Z,70.98
2018-11-20T18:39:03.500Z,70.54
2018-11-20T18:41:50.137Z,70.96
2018-11-20T18:44:37.061Z,70.78
2018-11-20T18:47:23.174Z,70.95
2018-11-20T18:50:10.427Z,70.90
2018-11-20T18:52:53.467Z,70.84
2018-11-20T18:55:49.549Z,71.07
2018-11-20T18:58:35.625Z,70.76
2018-11-20T19:01:17.763Z,70.52
2018-11-20T19:04:03.448Z,70.77
2018-11-20T19:06:43.995Z,70.63
2018-11-20T19:09:29.726Z,70.34
2018-11-20T19:12:28.221Z,70.68
2018-11-20T19:15:14.180Z,70.49
2018-11-20T19:18:00.429Z,70.59
2018-11-20T19:20:46.201Z,70.56
2018-11-20T19:23:32.014Z,70.42
2018-11-20T19:26:18.229Z,70.92
2018-11-20T19:29:08.073Z,70.86
2018-11-20T19:32:10.573Z,70.75
2018-11-20T19:35:06.852Z,71.03
2018-11-20T19:37:52.396Z,70.49
2018-11-20T19:40:46.566Z,70.98
2018-11-20T19:43:32.494Z,71.19
2018-11-20T19:46:37.797Z,70.68
2018-11-20T19:49:27.390Z,70.87
2018-11-20T19:52:08.109Z,71.03
2018-11-20T19:54:58.010Z,71.07
2018-11-20T19:58:03.177Z,71.12
2018-11-20T20:00:45.215Z,70.93
2018-11-20T20:03:31.193Z,71.03
2018-11-20T20:06:17.408Z,71.47
2018-11-20T20:09:10.551Z,71.43
2018-11-20T20:11:56.729Z,71.35
2018-11-20T20:14:31.586Z,71.38
2018-11-20T20:17:27.850Z,71.33
2018-11-20T20:20:11.621Z,71.69
2018-11-20T20:22:57.153Z,71.50
2018-11-20T20:25:50.757Z,71.15
2018-11-20T20:28:37.408Z,71.82
2018-11-20T20:31:32.502Z,71.53
2018-11-20T20:34:31.961Z,71.64
2018-11-20T20:37:17.934Z,72.08
2018-11-20T20:40:12.811Z,71.89
2018-11-20T20:42:52.642Z,72.17
2018-11-20T20:45:39.611Z,72.40
2018-11-20T20:48:38.890Z,72.03
2018-11-20T20:51:24.642Z,71.62
2018-11-20T20:54:12.311Z,71.74
2018-11-20T20:56:45.341Z,72.01
2018-11-20T20:59:35.031Z,71.68
2018-11-20T21:02:13.741Z,72.23
2018-11-20T21:05:06.789Z,72.17
2018-11-20T21:07:57.513Z,72.14
2018-11-20T21:10:59.761Z,71.87
2018-11-20T21:13:49.792Z,72.18
2018-11-20T21:16:51.714Z,72.29
2018-11-20T21:19:52.828Z,72.48
2018-11-20T21:22:39.476Z,72.30
2018-11-20T21:25:26.957Z,72.25
2018-11-20T21:28:19.866Z,72.49
2018-11-20T21:31:02.963Z,72.33
2018-11-20T21:33:44.386Z,72.90
2018-11-20T21:36:28.674Z,72.47
2018-11-20T21:39:29.229Z,72.73
2018-11-20T21:42:17.431Z,72.65
2018-11-20T21:45:17.103Z,73.49
2018-11-20T21:48:09.902Z,73.01
2018-11-20T21:50:57.142Z,73.64
2018-11-20T21:53:43.285Z,74.18
2018-11-20T21:56:26.913Z,73.98
2018-11-20T21:59:15.267Z,73.82
2018-11-20T22:02:14.938Z,73.65
2018-11-20T22:04:53.999Z,73.62
2018-11-20T22:07:40.912Z,73.91
2018-11-20T22:10:27.145Z,73.66
2018-11-20T22:13:16.918Z,74.57
2018-11-20T22:16:02.366Z,75.28
2018-11-20T22:18:48.238Z,74.67
2018-11-20T22:21:39.105Z,75.67
2018-11-20T22:24:28.453Z,75.77
2018-11-20T22:27:11.355Z,75.11
2018-11-20T22:29:58.490Z,75.09
2018-11-20T22:32:44.126Z,74.57
2018-11-20T22:35:33.984Z,75.78
2018-11-20T22:38:29.707Z,75.43
2018-11-20T22:41:19.425Z,74.62
2018-11-20T22:44:08.987Z,76.06
2018-11-20T22:46:51.543Z,75.88
2018-11-20T22:49:32.157Z,76.23
2018-11-20T22:52:16.181Z,75.60
2018-11-20T22:55:09.014Z,76.18
2018-11-20T22:58:08.994Z,76.48
2018-11-20T23:00:54.204Z,76.62
2018-11-20T23:03:59.485Z,76.27
2018-11-20T23:06:45.268Z,76.40
2018-11-20T23:09:12.864Z,76.67
2018-11-20T23:11:40.233Z,77.61
2018-11-20T23:14:07.767Z,76.62
2018-11-20T23:16:35.021Z,77.23
2018-11-20T23:19:02.246Z,76.80
2018-11-20T23:21:29.712Z,77.46
2018-11-20T23:23:56.954Z,76.79
2018-11-20T23:26:24.487Z,76.62
2018-11-20T23:28:51.998Z,76.94
2018-11-20T23:31:20.164Z,77.43
2018-11-20T23:33:48.237Z,77.66
2018-11-20T23:36:15.792Z,78.44
2018-11-20T23:38:43.854Z,77.93
2018-11-20T23:41:11.495Z,78.72
2018-11-20T23:43:38.753Z,79.39
2018-11-20T23:46:06.776Z,79.01
2018-11-20T23:48:34.126Z,78.53
2018-11-20T23:51:01.510Z,78.51
2018-11-20T23:53:29.400Z,77.42
2018-11-20T23:55:56.707Z,77.49
2018-11-20T23:58:23.938Z,77.76
